Greenville, Iowa
Current Conditions -  °F | °C
As of 9:53 AM on Monday 26 Jan 2015 (Local Time) from KSPW Reporting Station
Clear Clear  
Wind Chill: 32°   Ceiling: Unl
Heat Index: 40°   Visibility: 10mi
Dew Point: 33°   Wind: 14mph
Humidity: 77%   Direction: 310°NW
Pressure: 29.8"   Gusts: NA
Location:  43.02°N, 95.15°W
Report Text: KSPW 261553Z AUTO 31012KT 10SM CLR 04/01 A2980 RMK AO2 SLP103 T00440006 TSNO
Loading
Personal Weather Stations






























Interactive Weather Map New forecast layout! Learn more

10-Day Weather Forecast

Advertisements
Track Severe Weather on mobile